createdAt,value
2022-11-06T00:00:58.267Z,101302.16
2022-11-06T00:03:29.790Z,101305.63
2022-11-06T00:06:20.507Z,101296.72
2022-11-06T00:08:52.418Z,101289.28
2022-11-06T00:11:23.993Z,101298.38
2022-11-06T00:13:55.805Z,101295.06
2022-11-06T00:16:27.286Z,101293.75
2022-11-06T00:18:59.129Z,101299.88
2022-11-06T00:21:30.669Z,101296.72
2022-11-06T00:24:02.531Z,101291.78
2022-11-06T00:26:34.058Z,101286.50
2022-11-06T00:29:05.911Z,101289.44
2022-11-06T00:31:37.420Z,101292.09
2022-11-06T00:34:09.231Z,101291.44
2022-11-06T00:36:40.714Z,101283.69
2022-11-06T00:39:12.548Z,101290.78
2022-11-06T00:41:44.049Z,101286.81
2022-11-06T00:44:15.903Z,101291.44
2022-11-06T00:46:47.402Z,101287.31
2022-11-06T00:49:19.311Z,101295.41
2022-11-06T00:51:50.812Z,101286.00
2022-11-06T00:54:22.821Z,101291.44
2022-11-06T00:56:54.328Z,101294.91
2022-11-06T00:59:26.129Z,101293.09
2022-11-06T01:01:57.736Z,101291.44
2022-11-06T01:04:29.703Z,101288.81
2022-11-06T01:07:01.264Z,101295.25
2022-11-06T01:09:33.115Z,101298.88
2022-11-06T01:12:13.797Z,101289.78
2022-11-06T01:14:46.103Z,101290.78
2022-11-06T01:17:17.615Z,101280.88
2022-11-06T01:19:49.525Z,101290.78
2022-11-06T01:22:21.002Z,101288.31
2022-11-06T01:24:52.983Z,101286.16
2022-11-06T01:27:27.038Z,101280.22
2022-11-06T01:29:59.264Z,101270.34
2022-11-06T01:32:30.819Z,101264.06
2022-11-06T01:35:02.815Z,101257.63
2022-11-06T01:37:34.389Z,101264.88
2022-11-06T01:40:06.274Z,101262.75
2022-11-06T01:42:37.760Z,101263.41
2022-11-06T01:45:09.748Z,101254.81
2022-11-06T01:47:41.446Z,101255.31
2022-11-06T01:50:13.276Z,101257.31
2022-11-06T01:52:44.830Z,101244.59
2022-11-06T01:55:16.792Z,101241.13
2022-11-06T01:57:48.593Z,101233.22
2022-11-06T02:00:20.558Z,101240.31
2022-11-06T02:02:52.289Z,101241.97
2022-11-06T02:05:24.287Z,101233.06
2022-11-06T02:07:55.785Z,101233.38
2022-11-06T02:10:27.616Z,101238.50
2022-11-06T02:12:59.115Z,101231.41
2022-11-06T02:15:30.975Z,101214.25
2022-11-06T02:18:02.480Z,101217.03
2022-11-06T02:20:34.355Z,101219.34
2022-11-06T02:23:05.840Z,101226.78
2022-11-06T02:25:37.667Z,101220.50
2022-11-06T02:28:09.239Z,101215.06
2022-11-06T02:30:41.209Z,101220.16
2022-11-06T02:33:12.692Z,101216.19
2022-11-06T02:35:44.458Z,101203.66
2022-11-06T02:38:16.207Z,101207.94
2022-11-06T02:40:47.857Z,101207.28
2022-11-06T02:43:19.360Z,101202.66
2022-11-06T02:45:51.314Z,101210.25
2022-11-06T02:48:22.783Z,101033.44
2022-11-06T02:50:54.609Z,101214.19
2022-11-06T02:53:26.347Z,101207.91
2022-11-06T02:55:58.172Z,101200.00
2022-11-06T03:01:00.411Z,101212.88
2022-11-06T03:03:31.867Z,101201.81
2022-11-06T03:06:03.819Z,101196.88
2022-11-06T03:08:35.304Z,101198.88
2022-11-06T03:11:07.099Z,101202.97
2022-11-06T03:13:38.882Z,101205.44
2022-11-06T03:16:10.700Z,101206.63
2022-11-06T03:18:42.206Z,101206.63
2022-11-06T03:21:14.416Z,101209.75
2022-11-06T03:23:48.040Z,101216.22
2022-11-06T03:26:19.882Z,101210.41
2022-11-06T03:28:51.370Z,101206.94
2022-11-06T03:31:22.905Z,101203.00
2022-11-06T03:33:54.387Z,101213.22
2022-11-06T03:36:26.155Z,101212.56
2022-11-06T03:38:57.646Z,101206.63
2022-11-06T03:41:29.677Z,101202.69
2022-11-06T03:44:01.164Z,101200.38
2022-11-06T03:46:33.170Z,101191.97
2022-11-06T03:49:04.644Z,101201.38
2022-11-06T03:51:36.475Z,101192.81
2022-11-06T03:54:07.993Z,101192.31
2022-11-06T03:56:39.816Z,101199.25
2022-11-06T03:59:11.371Z,101194.13
2022-11-06T04:01:44.645Z,101194.28
2022-11-06T04:04:16.227Z,101189.03
2022-11-06T04:06:48.085Z,101193.81
2022-11-06T04:09:38.652Z,101190.50
2022-11-06T04:12:28.935Z,101188.84
2022-11-06T04:15:00.775Z,101192.47
2022-11-06T04:17:32.461Z,101182.91
2022-11-06T04:20:04.318Z,101177.28
2022-11-06T04:22:35.798Z,101175.81
2022-11-06T04:25:26.137Z,101176.63
2022-11-06T04:27:57.630Z,101175.00
2022-11-06T04:30:29.449Z,101166.91
2022-11-06T04:33:00.997Z,101172.19
2022-11-06T04:35:32.947Z,101170.06
2022-11-06T04:38:04.522Z,101175.50
2022-11-06T04:40:36.405Z,101182.59
2022-11-06T04:43:07.890Z,101180.94
2022-11-06T04:45:40.101Z,101183.75
2022-11-06T04:48:11.838Z,101181.25
2022-11-06T04:50:43.984Z,101181.25
2022-11-06T04:53:15.481Z,101045.41
2022-11-06T04:55:47.667Z,101182.44
2022-11-06T04:58:19.158Z,101172.03
2022-11-06T05:00:51.041Z,101166.09
2022-11-06T05:03:22.596Z,101157.53
2022-11-06T05:05:54.426Z,101153.91
2022-11-06T05:08:25.987Z,101150.28
2022-11-06T05:10:57.789Z,101150.28
2022-11-06T05:13:29.278Z,101149.13
2022-11-06T05:16:01.089Z,101155.56
2022-11-06T05:18:32.670Z,101148.31
2022-11-06T05:21:23.211Z,101143.34
2022-11-06T05:23:55.085Z,101142.53
2022-11-06T05:26:26.590Z,101151.09
2022-11-06T05:28:58.477Z,101158.84
2022-11-06T05:31:29.993Z,101156.88
2022-11-06T05:34:01.960Z,101158.19
2022-11-06T05:36:33.438Z,101154.72
2022-11-06T05:39:05.448Z,101148.63
2022-11-06T05:41:36.967Z,101147.81
2022-11-06T05:44:08.678Z,101146.16
2022-11-06T05:46:48.591Z,101152.56
2022-11-06T05:49:21.491Z,101150.91
2022-11-06T05:51:53.055Z,101151.75
2022-11-06T05:54:24.568Z,101158.16
2022-11-06T05:56:56.091Z,101156.50
2022-11-06T05:59:27.933Z,101160.31
2022-11-06T06:01:59.662Z,101160.97
2022-11-06T06:04:31.642Z,101161.28
2022-11-06T06:07:03.136Z,101154.38
2022-11-06T06:09:34.994Z,101158.66
2022-11-06T06:12:06.482Z,101158.50
2022-11-06T06:14:38.317Z,101159.66
2022-11-06T06:17:09.859Z,101165.41
2022-11-06T06:19:41.791Z,101164.25
2022-11-06T06:22:13.270Z,101159.97
2022-11-06T06:24:45.190Z,101168.38
2022-11-06T06:27:17.277Z,101157.53
2022-11-06T06:29:49.209Z,101162.81
2022-11-06T06:32:20.718Z,101161.66
2022-11-06T06:34:52.580Z,101170.72
2022-11-06T06:37:24.090Z,101176.81
2022-11-06T06:39:56.119Z,101179.78
2022-11-06T06:42:31.268Z,101175.16
2022-11-06T06:45:03.551Z,101185.06
2022-11-06T06:47:35.067Z,101185.72
2022-11-06T06:50:06.967Z,101184.22
2022-11-06T06:52:38.651Z,101184.72
2022-11-06T06:55:10.420Z,101185.72
2022-11-06T06:57:41.950Z,101183.25
2022-11-06T07:00:13.852Z,101188.34
2022-11-06T07:02:45.345Z,101165.88
2022-11-06T07:05:17.238Z,101174.28
2022-11-06T07:07:48.739Z,101182.69
2022-11-06T07:10:20.618Z,101181.19
2022-11-06T07:12:52.138Z,101094.16
2022-11-06T07:15:24.100Z,101186.22
2022-11-06T07:17:55.580Z,101191.28
2022-11-06T07:20:27.409Z,101190.25
2022-11-06T07:22:58.938Z,101193.50
2022-11-06T07:25:30.753Z,101202.78
2022-11-06T07:28:02.927Z,101189.31
2022-11-06T07:30:35.017Z,101183.97
2022-11-06T07:33:06.557Z,101183.75
2022-11-06T07:35:38.455Z,101177.53
2022-11-06T07:38:10.028Z,101181.84
2022-11-06T07:40:41.582Z,101181.66
2022-11-06T07:43:13.708Z,101179.88
2022-11-06T07:45:45.539Z,101175.59
2022-11-06T07:48:17.586Z,101188.75
2022-11-06T07:50:49.438Z,101186.97
2022-11-06T07:53:20.956Z,101182.41
2022-11-06T07:55:52.636Z,101169.06
2022-11-06T07:58:24.181Z,101169.50
2022-11-06T08:00:56.081Z,101160.94
2022-11-06T08:03:30.567Z,101165.19
2022-11-06T08:06:02.098Z,101046.66
2022-11-06T08:08:33.917Z,101168.56
2022-11-06T08:11:05.473Z,101166.84
2022-11-06T08:13:37.497Z,101170.00
2022-11-06T08:16:08.979Z,101160.03
2022-11-06T08:18:40.890Z,101162.75
2022-11-06T08:21:12.399Z,101157.41
2022-11-06T08:23:44.207Z,101163.09
2022-11-06T08:26:15.706Z,101159.31
2022-11-06T08:28:47.705Z,101162.88
2022-11-06T08:31:21.038Z,101166.53
2022-11-06T08:33:53.897Z,101157.22
2022-11-06T08:36:25.447Z,101162.09
2022-11-06T08:38:57.337Z,101163.25
2022-11-06T08:41:28.821Z,101157.56
2022-11-06T08:44:00.308Z,101150.06
2022-11-06T08:46:31.797Z,101149.06
2022-11-06T08:49:06.964Z,101139.44
2022-11-06T08:51:38.517Z,101131.44
2022-11-06T08:54:10.387Z,101127.56
2022-11-06T08:56:41.972Z,101126.31
2022-11-06T08:59:13.742Z,101126.50
2022-11-06T09:01:45.431Z,101134.28
2022-11-06T09:04:17.569Z,101131.72
2022-11-06T09:06:49.073Z,101131.94
2022-11-06T09:09:20.576Z,101131.63
2022-11-06T09:11:52.068Z,101128.75
2022-11-06T09:14:23.587Z,101132.69
2022-11-06T09:16:55.099Z,101127.56
2022-11-06T09:19:26.986Z,101126.31
2022-11-06T09:21:58.559Z,101120.59
2022-11-06T09:24:57.203Z,101126.34
2022-11-06T09:27:21.901Z,101132.06
2022-11-06T09:29:54.219Z,101136.16
2022-11-06T09:32:25.815Z,101122.66
2022-11-06T09:34:57.763Z,100918.34
2022-11-06T09:37:29.259Z,101138.84
2022-11-06T09:40:05.992Z,101132.63
2022-11-06T09:42:38.100Z,101127.75
2022-11-06T09:45:10.048Z,101128.59
2022-11-06T09:47:41.539Z,101128.56
2022-11-06T09:50:13.363Z,101126.25
2022-11-06T09:52:44.842Z,101125.97
2022-11-06T09:55:17.107Z,101131.94
2022-11-06T09:57:48.651Z,101133.69
2022-11-06T10:00:20.512Z,101127.16
2022-11-06T10:02:52.194Z,101129.56
2022-11-06T10:05:23.769Z,101121.75
2022-11-06T10:07:55.362Z,101118.34
2022-11-06T10:10:27.127Z,101122.38
2022-11-06T10:12:59.109Z,101119.25
2022-11-06T10:15:30.602Z,101107.53
2022-11-06T10:18:02.556Z,101105.72
2022-11-06T10:20:34.036Z,101110.03
2022-11-06T10:23:05.849Z,101105.25
2022-11-06T10:25:37.357Z,101108.38
2022-11-06T10:28:09.206Z,101098.53
2022-11-06T10:30:40.733Z,101102.81
2022-11-06T10:33:13.104Z,101087.03
2022-11-06T10:35:44.590Z,101086.53
2022-11-06T10:38:16.845Z,101078.53
2022-11-06T10:40:53.734Z,101083.75
2022-11-06T10:43:25.809Z,101085.84
2022-11-06T10:45:57.312Z,101081.38
2022-11-06T10:48:32.415Z,101074.78
2022-11-06T10:51:05.889Z,101058.25
2022-11-06T10:53:37.698Z,101065.16
2022-11-06T10:56:11.171Z,101054.69
2022-11-06T10:58:43.260Z,101059.97
2022-11-06T11:01:15.103Z,101050.00
2022-11-06T11:03:47.053Z,101041.81
2022-11-06T11:06:18.614Z,101039.81
2022-11-06T11:08:50.237Z,101043.50
2022-11-06T11:11:22.744Z,101033.03
2022-11-06T11:13:54.584Z,101043.09
2022-11-06T11:16:26.155Z,101037.34
2022-11-06T11:18:57.953Z,101032.16
2022-11-06T11:21:29.441Z,101034.63
2022-11-06T11:24:01.432Z,101020.16
2022-11-06T11:26:32.925Z,101022.16
2022-11-06T11:29:04.787Z,101024.13
2022-11-06T11:31:36.321Z,101021.06
2022-11-06T11:34:08.301Z,101021.78
2022-11-06T11:36:39.807Z,101015.75
2022-11-06T11:39:11.745Z,101012.50
2022-11-06T11:41:43.245Z,101012.13
2022-11-06T11:44:14.798Z,101010.78
2022-11-06T11:46:46.310Z,101002.81
2022-11-06T11:49:18.150Z,101000.44
2022-11-06T11:51:49.640Z,101007.78
2022-11-06T11:54:21.708Z,100994.44
2022-11-06T11:57:08.787Z,100994.38
2022-11-06T11:59:40.667Z,101001.84
2022-11-06T12:02:12.258Z,101001.06
2022-11-06T12:04:44.193Z,100985.56
2022-11-06T12:07:15.766Z,100980.16
2022-11-06T12:09:47.300Z,100971.91
2022-11-06T12:12:18.789Z,100966.41
2022-11-06T12:14:50.618Z,100963.53
2022-11-06T12:17:22.162Z,100960.22
2022-11-06T12:19:54.057Z,100948.94
2022-11-06T12:22:25.578Z,100950.81
2022-11-06T12:24:57.407Z,100952.13
2022-11-06T12:27:28.914Z,100956.22
2022-11-06T12:30:00.783Z,100950.53
2022-11-06T12:32:32.282Z,100944.06
2022-11-06T12:35:04.127Z,100947.84
2022-11-06T12:37:35.644Z,100951.88
2022-11-06T12:40:07.625Z,100939.13
2022-11-06T12:42:39.127Z,100944.25
2022-11-06T12:45:10.650Z,100936.53
2022-11-06T12:47:42.147Z,100943.59
2022-11-06T12:50:13.854Z,100938.22
2022-11-06T12:52:45.397Z,100930.34
2022-11-06T12:55:17.391Z,100934.00
2022-11-06T12:57:49.026Z,100935.81
2022-11-06T13:00:20.682Z,100933.56
2022-11-06T13:02:52.233Z,100930.88
2022-11-06T13:05:24.271Z,100921.69
2022-11-06T13:07:55.820Z,100915.69
2022-11-06T13:10:27.871Z,100918.09
2022-11-06T13:12:59.420Z,100918.41
2022-11-06T13:15:31.405Z,100915.31
2022-11-06T13:18:03.289Z,100920.81
2022-11-06T13:20:34.836Z,100915.78
2022-11-06T13:23:06.715Z,100912.44
2022-11-06T13:25:39.665Z,100911.50
2022-11-06T13:28:12.041Z,100901.03
2022-11-06T13:30:43.754Z,100896.13
2022-11-06T13:33:15.640Z,100885.44
2022-11-06T13:35:47.179Z,100885.97
2022-11-06T13:38:19.155Z,100887.75
2022-11-06T13:40:53.540Z,100881.44
2022-11-06T13:43:25.467Z,100887.91
2022-11-06T13:45:56.953Z,100876.47
2022-11-06T13:48:31.966Z,100875.28
2022-11-06T13:51:07.568Z,100873.09
2022-11-06T13:53:39.421Z,100870.50
2022-11-06T13:56:11.031Z,100866.69
2022-11-06T13:58:42.936Z,100866.38
2022-11-06T14:01:14.445Z,100872.50
2022-11-06T14:03:46.290Z,100882.09
2022-11-06T14:06:17.779Z,100880.63
2022-11-06T14:08:49.655Z,100884.72
2022-11-06T14:11:21.612Z,100864.59
2022-11-06T14:13:53.440Z,100871.78
2022-11-06T14:16:25.244Z,100854.53
2022-11-06T14:18:57.122Z,100860.00
2022-11-06T14:21:29.109Z,100859.88
2022-11-06T14:24:01.132Z,100854.56
2022-11-06T14:26:32.622Z,100853.53
2022-11-06T14:29:04.190Z,100845.38
2022-11-06T14:31:35.684Z,100844.94
2022-11-06T14:34:07.491Z,100840.84
2022-11-06T14:36:39.038Z,100835.75
2022-11-06T14:39:10.573Z,100832.53
2022-11-06T14:41:42.157Z,100838.75
2022-11-06T14:44:13.692Z,100842.47
2022-11-06T14:46:45.392Z,100833.56
2022-11-06T14:49:16.956Z,100824.22
2022-11-06T14:51:48.440Z,100824.00
2022-11-06T14:54:20.264Z,100814.00
2022-11-06T14:56:51.792Z,100822.88
2022-11-06T15:02:24.676Z,100794.69
2022-11-06T15:04:56.767Z,100796.19
2022-11-06T15:07:58.262Z,100792.09
2022-11-06T15:10:20.148Z,100796.38
2022-11-06T15:12:51.628Z,100790.28
2022-11-06T15:15:23.397Z,100799.97
2022-11-06T15:17:54.882Z,100799.81
2022-11-06T15:20:26.431Z,100799.31
2022-11-06T15:22:57.921Z,100794.44
2022-11-06T15:25:29.758Z,100797.34
2022-11-06T15:28:04.689Z,100793.91
2022-11-06T15:30:36.149Z,100794.16
2022-11-06T15:33:08.026Z,100800.72
2022-11-06T15:35:39.526Z,100803.63
2022-11-06T15:38:11.391Z,100801.41
2022-11-06T15:40:43.077Z,100792.63
2022-11-06T15:43:14.837Z,100803.09
2022-11-06T15:45:46.701Z,100792.03
2022-11-06T15:48:18.646Z,100794.31
2022-11-06T15:50:50.186Z,100790.66
2022-11-06T15:53:22.132Z,100788.84
2022-11-06T15:55:53.688Z,100786.81
2022-11-06T15:58:31.660Z,100782.50
2022-11-06T16:01:04.373Z,100776.38
2022-11-06T16:03:36.106Z,100773.94
2022-11-06T16:06:07.557Z,100761.25
2022-11-06T16:08:39.114Z,100758.81
2022-11-06T16:11:13.364Z,100751.47
2022-11-06T16:13:45.179Z,100746.16
2022-11-06T16:16:16.651Z,100749.41
2022-11-06T16:18:49.732Z,100742.47
2022-11-06T16:21:21.236Z,100742.47
2022-11-06T16:23:53.066Z,100751.47
2022-11-06T16:26:24.537Z,100741.25
2022-11-06T16:28:56.457Z,100732.88
2022-11-06T16:31:28.058Z,100731.03
2022-11-06T16:33:59.898Z,100732.69
2022-11-06T16:36:31.367Z,100732.06
2022-11-06T16:39:03.160Z,100725.28
2022-11-06T16:41:37.697Z,100722.84
2022-11-06T16:44:09.508Z,100726.94
2022-11-06T16:46:40.974Z,100721.22
2022-11-06T16:49:12.461Z,100723.25
2022-11-06T16:51:43.976Z,100716.50
2022-11-06T16:54:15.816Z,100719.75
2022-11-06T16:56:47.299Z,100720.78
2022-11-06T16:59:19.083Z,100727.31
2022-11-06T17:01:50.731Z,100730.78
2022-11-06T17:04:22.675Z,100728.31
2022-11-06T17:06:54.144Z,100728.75
2022-11-06T17:09:26.003Z,100727.31
2022-11-06T17:11:57.522Z,100725.88
2022-11-06T17:14:29.178Z,100726.91
2022-11-06T17:17:00.689Z,100725.47
2022-11-06T17:19:32.494Z,100733.00
2022-11-06T17:22:04.035Z,100605.03
2022-11-06T17:24:36.936Z,100734.59
2022-11-06T17:27:09.209Z,100727.25
2022-11-06T17:29:40.998Z,100731.53
2022-11-06T17:32:12.462Z,100733.34
2022-11-06T17:34:44.367Z,100731.72
2022-11-06T17:37:15.826Z,100723.53
2022-11-06T17:39:47.782Z,100719.06
2022-11-06T17:42:19.243Z,100729.25
2022-11-06T17:44:50.888Z,100732.53
2022-11-06T17:47:22.345Z,100729.06
2022-11-06T17:49:54.136Z,100724.75
2022-11-06T17:52:25.732Z,100723.13
2022-11-06T17:54:57.727Z,100729.66
2022-11-06T17:57:29.240Z,100722.50
2022-11-06T18:00:00.829Z,100716.59
2022-11-06T18:02:58.957Z,100718.44
2022-11-06T18:05:24.282Z,100727.59
2022-11-06T18:07:56.211Z,100717.81
2022-11-06T18:10:30.724Z,100714.53
2022-11-06T18:13:02.712Z,100722.25
2022-11-06T18:15:34.692Z,100713.69
2022-11-06T18:18:06.637Z,100709.59
2022-11-06T18:20:38.109Z,100713.84
2022-11-06T18:23:09.693Z,100711.19
2022-11-06T18:25:41.163Z,100707.94
2022-11-06T18:28:13.194Z,100710.78
2022-11-06T18:30:44.655Z,100692.81
2022-11-06T18:33:16.528Z,100706.28
2022-11-06T18:35:48.025Z,100700.56
2022-11-06T18:38:19.920Z,100696.06
2022-11-06T18:40:51.889Z,100695.03
2022-11-06T18:43:23.945Z,100699.13
2022-11-06T18:45:55.466Z,100686.47
2022-11-06T18:48:27.274Z,100688.50
2022-11-06T18:50:58.791Z,100686.19
2022-11-06T18:53:30.347Z,100697.19
2022-11-06T18:56:01.935Z,100697.19
2022-11-06T18:58:33.468Z,100692.69
2022-11-06T19:01:05.030Z,100703.50
2022-11-06T19:03:36.665Z,100703.06
2022-11-06T19:06:08.235Z,100702.66
2022-11-06T19:08:41.078Z,100702.22
2022-11-06T19:11:12.554Z,100693.03
2022-11-06T19:13:47.815Z,100689.94
2022-11-06T19:16:19.979Z,100695.22
2022-11-06T19:21:32.930Z,100696.94
2022-11-06T19:24:05.735Z,100688.75
2022-11-06T19:26:37.764Z,100700.56
2022-11-06T19:29:09.580Z,100694.41
2022-11-06T19:31:41.781Z,100697.25
2022-11-06T19:34:13.664Z,100700.88
2022-11-06T19:36:45.574Z,100698.03
2022-11-06T19:39:17.312Z,100705.16
2022-11-06T19:41:49.116Z,100700.88
2022-11-06T19:44:20.582Z,100705.50
2022-11-06T19:46:52.391Z,100699.38
2022-11-06T19:49:23.866Z,100700.22
2022-11-06T19:51:55.593Z,100700.88
2022-11-06T19:54:27.067Z,100697.75
2022-11-06T19:57:29.558Z,100687.78
2022-11-06T19:59:50.347Z,100687.97
2022-11-06T20:02:22.360Z,100686.16
2022-11-06T20:04:53.977Z,100685.72
2022-11-06T20:07:26.891Z,100691.66
2022-11-06T20:10:02.090Z,100684.91
2022-11-06T20:12:34.141Z,100684.91
2022-11-06T20:15:05.620Z,100684.09
2022-11-06T20:17:37.602Z,100678.97
2022-11-06T20:20:09.073Z,100679.56
2022-11-06T20:22:40.575Z,100676.53
2022-11-06T20:25:12.044Z,100677.53
2022-11-06T20:27:43.843Z,100676.53
2022-11-06T20:30:15.871Z,100675.53
2022-11-06T20:32:47.436Z,100679.19
2022-11-06T20:35:19.298Z,100680.00
2022-11-06T20:37:51.300Z,100673.88
2022-11-06T20:40:23.010Z,100668.97
2022-11-06T20:42:54.856Z,100667.56
2022-11-06T20:45:27.508Z,100663.34
2022-11-06T20:47:59.301Z,100655.59
2022-11-06T20:50:30.829Z,100652.31
2022-11-06T20:53:02.773Z,100641.91
2022-11-06T20:55:34.595Z,100643.56
2022-11-06T20:58:06.263Z,100631.94
2022-11-06T21:00:37.763Z,100630.31
2022-11-06T21:03:09.675Z,100625.22
2022-11-06T21:05:41.649Z,100618.91
2022-11-06T21:08:13.553Z,100609.97
2022-11-06T21:10:45.075Z,100614.63
2022-11-06T21:13:17.087Z,100608.94
2022-11-06T21:15:48.633Z,100608.13
2022-11-06T21:18:20.156Z,100612.84
2022-11-06T21:20:51.643Z,100605.47
2022-11-06T21:23:23.605Z,100601.81
2022-11-06T21:25:55.102Z,100602.63
2022-11-06T21:28:27.069Z,100594.50
2022-11-06T21:30:58.574Z,100590.84
2022-11-06T21:33:30.629Z,100593.13
2022-11-06T21:36:02.164Z,100586.22
2022-11-06T21:38:34.102Z,100585.81
2022-11-06T21:41:05.693Z,100580.69
2022-11-06T21:43:37.629Z,100577.84
2022-11-06T21:46:09.162Z,100578.25
2022-11-06T21:48:46.266Z,100582.69
2022-11-06T21:51:18.714Z,100577.41
2022-11-06T21:54:09.484Z,100577.78
2022-11-06T21:56:41.007Z,100577.16
2022-11-06T21:59:12.870Z,100576.75
2022-11-06T22:01:44.499Z,100580.22
2022-11-06T22:04:16.667Z,100564.72
2022-11-06T22:06:48.248Z,100563.91
2022-11-06T22:09:24.967Z,100563.47
2022-11-06T22:11:57.265Z,100565.34
2022-11-06T22:14:29.106Z,100566.16
2022-11-06T22:17:00.627Z,100559.03
2022-11-06T22:19:32.458Z,100561.47
2022-11-06T22:22:03.974Z,100557.81
2022-11-06T22:24:35.826Z,100542.34
2022-11-06T22:27:07.335Z,100547.28
2022-11-06T22:29:39.207Z,100564.41
2022-11-06T22:32:10.797Z,100545.28
2022-11-06T22:34:42.686Z,100551.41
2022-11-06T22:37:17.337Z,100553.22
2022-11-06T22:39:49.473Z,100548.75
2022-11-06T22:42:21.022Z,100556.69
2022-11-06T22:44:52.944Z,100554.06
2022-11-06T22:47:24.504Z,100552.66
2022-11-06T22:49:56.397Z,100542.06
2022-11-06T22:52:27.989Z,100553.88
2022-11-06T22:55:00.109Z,100547.78
2022-11-06T22:57:31.618Z,100548.38
2022-11-06T23:00:04.441Z,100545.50
2022-11-06T23:02:36.209Z,100550.63
2022-11-06T23:05:08.253Z,100547.53
2022-11-06T23:07:39.768Z,100547.53
2022-11-06T23:10:11.789Z,100547.53
2022-11-06T23:12:43.313Z,100543.25
2022-11-06T23:15:14.828Z,100547.91
2022-11-06T23:17:46.795Z,100554.22
2022-11-06T23:20:18.348Z,100566.69
2022-11-06T23:22:50.928Z,100561.78
2022-11-06T23:25:22.430Z,100560.69
2022-11-06T23:27:54.318Z,100562.38
2022-11-06T23:30:25.892Z,100563.19
2022-11-06T23:32:57.693Z,100553.78
2022-11-06T23:35:32.684Z,100556.63
2022-11-06T23:38:04.866Z,100544.38
2022-11-06T23:40:36.380Z,100540.34
2022-11-06T23:43:08.247Z,100545.63
2022-11-06T23:45:58.915Z,100539.50
2022-11-06T23:48:30.802Z,100537.53
2022-11-06T23:51:02.312Z,100551.78
2022-11-06T23:53:34.167Z,100546.91
2022-11-06T23:56:05.654Z,100532.66
2022-11-06T23:58:38.157Z,100540.78
